sensor_id;sensor_type;location;lat;lon;timestamp;pressure;altitude;pressure_sealevel;temperature;humidity
48644;BME280;34928;37.302;-121.984;2022-09-09T00:01:28;99743.0;;;32.39;21.76
48644;BME280;34928;37.302;-121.984;2022-09-09T00:11:40;99734.0;;;32.64;21.66
48644;BME280;34928;37.302;-121.984;2022-09-09T00:21:52;99722.0;;;32.68;21.67
48644;BME280;34928;37.302;-121.984;2022-09-09T00:32:05;99723.0;;;32.62;21.44
48644;BME280;34928;37.302;-121.984;2022-09-09T00:42:16;99727.0;;;32.63;21.16
48644;BME280;34928;37.302;-121.984;2022-09-09T00:52:32;99722.0;;;32.29;21.03
48644;BME280;34928;37.302;-121.984;2022-09-09T01:02:43;99716.0;;;32.26;20.70
48644;BME280;34928;37.302;-121.984;2022-09-09T01:12:54;99723.0;;;32.37;20.61
48644;BME280;34928;37.302;-121.984;2022-09-09T01:23:24;99718.0;;;32.10;20.52
48644;BME280;34928;37.302;-121.984;2022-09-09T01:33:33;99713.0;;;32.26;20.34
48644;BME280;34928;37.302;-121.984;2022-09-09T01:43:38;99717.0;;;31.94;20.31
48644;BME280;34928;37.302;-121.984;2022-09-09T01:53:43;99718.0;;;31.84;20.20
48644;BME280;34928;37.302;-121.984;2022-09-09T02:03:53;99717.0;;;32.25;20.22
48644;BME280;34928;37.302;-121.984;2022-09-09T02:14:01;99712.0;;;31.90;20.20
48644;BME280;34928;37.302;-121.984;2022-09-09T02:24:09;99702.0;;;32.14;20.07
48644;BME280;34928;37.302;-121.984;2022-09-09T02:34:18;99693.0;;;31.83;20.13
48644;BME280;34928;37.302;-121.984;2022-09-09T02:44:27;99705.0;;;32.00;19.99
48644;BME280;34928;37.302;-121.984;2022-09-09T02:54:33;99722.0;;;31.98;19.93
48644;BME280;34928;37.302;-121.984;2022-09-09T03:04:37;99732.0;;;31.58;19.98
48644;BME280;34928;37.302;-121.984;2022-09-09T03:14:42;99738.0;;;31.94;19.82
48644;BME280;34928;37.302;-121.984;2022-09-09T03:24:47;99745.0;;;31.83;19.82
48644;BME280;34928;37.302;-121.984;2022-09-09T03:34:53;99751.0;;;31.83;19.74
48644;BME280;34928;37.302;-121.984;2022-09-09T03:44:57;99778.0;;;31.84;19.61
48644;BME280;34928;37.302;-121.984;2022-09-09T03:55:02;99786.0;;;31.62;19.57
48644;BME280;34928;37.302;-121.984;2022-09-09T04:05:08;99792.0;;;31.36;19.66
48644;BME280;34928;37.302;-121.984;2022-09-09T04:15:13;99797.0;;;31.32;19.61
48644;BME280;34928;37.302;-121.984;2022-09-09T04:25:17;99796.0;;;31.37;19.66
48644;BME280;34928;37.302;-121.984;2022-09-09T04:35:23;99790.0;;;31.57;19.47
48644;BME280;34928;37.302;-121.984;2022-09-09T04:45:27;99795.0;;;31.20;19.45
48644;BME280;34928;37.302;-121.984;2022-09-09T04:55:33;99797.0;;;31.13;19.37
48644;BME280;34928;37.302;-121.984;2022-09-09T05:05:37;99794.0;;;31.18;19.06
48644;BME280;34928;37.302;-121.984;2022-09-09T05:15:42;99780.0;;;30.83;18.88
48644;BME280;34928;37.302;-121.984;2022-09-09T05:25:58;99782.0;;;30.90;19.20
48644;BME280;34928;37.302;-121.984;2022-09-09T05:36:04;99790.0;;;31.28;19.99
48644;BME280;34928;37.302;-121.984;2022-09-09T05:46:09;99783.0;;;31.35;20.01
48644;BME280;34928;37.302;-121.984;2022-09-09T05:56:14;99776.0;;;31.48;21.04
48644;BME280;34928;37.302;-121.984;2022-09-09T06:06:19;99775.0;;;32.12;22.41
48644;BME280;34928;37.302;-121.984;2022-09-09T06:16:24;99754.0;;;31.93;22.72
48644;BME280;34928;37.302;-121.984;2022-09-09T06:26:29;99755.0;;;31.69;23.12
48644;BME280;34928;37.302;-121.984;2022-09-09T06:36:33;99743.0;;;31.92;23.50
48644;BME280;34928;37.302;-121.984;2022-09-09T06:46:37;99748.0;;;31.91;23.97
48644;BME280;34928;37.302;-121.984;2022-09-09T06:56:43;99751.0;;;31.71;24.52
48644;BME280;34928;37.302;-121.984;2022-09-09T07:06:47;99749.0;;;31.96;22.32
48644;BME280;34928;37.302;-121.984;2022-09-09T07:16:52;99751.0;;;31.05;21.21
48644;BME280;34928;37.302;-121.984;2022-09-09T07:26:57;99748.0;;;31.14;20.50
48644;BME280;34928;37.302;-121.984;2022-09-09T07:37:02;99742.0;;;31.64;23.55
48644;BME280;34928;37.302;-121.984;2022-09-09T07:47:07;99740.0;;;31.26;24.96
48644;BME280;34928;37.302;-121.984;2022-09-09T07:57:12;99713.0;;;30.99;25.53
48644;BME280;34928;37.302;-121.984;2022-09-09T08:07:17;99711.0;;;31.52;25.21
48644;BME280;34928;37.302;-121.984;2022-09-09T08:17:22;99695.0;;;31.73;24.95
48644;BME280;34928;37.302;-121.984;2022-09-09T08:27:27;99678.0;;;31.52;25.06
48644;BME280;34928;37.302;-121.984;2022-09-09T08:37:32;99684.0;;;31.48;25.16
48644;BME280;34928;37.302;-121.984;2022-09-09T08:47:44;99677.0;;;31.71;25.40
48644;BME280;34928;37.302;-121.984;2022-09-09T08:57:55;99659.0;;;31.44;25.49
48644;BME280;34928;37.302;-121.984;2022-09-09T09:08:04;99653.0;;;31.36;25.80
48644;BME280;34928;37.302;-121.984;2022-09-09T09:18:13;99631.0;;;31.81;26.23
48644;BME280;34928;37.302;-121.984;2022-09-09T09:28:18;99633.0;;;31.50;27.27
48644;BME280;34928;37.302;-121.984;2022-09-09T09:38:28;99623.0;;;31.26;28.58
48644;BME280;34928;37.302;-121.984;2022-09-09T09:48:18;99613.0;;;31.19;29.02
48644;BME280;34928;37.302;-121.984;2022-09-09T09:58:22;99614.0;;;31.34;29.30
48644;BME280;34928;37.302;-121.984;2022-09-09T10:08:28;99590.0;;;31.30;29.57
48644;BME280;34928;37.302;-121.984;2022-09-09T10:18:41;99598.0;;;30.99;29.72
48644;BME280;34928;37.302;-121.984;2022-09-09T10:39:17;99587.0;;;31.30;30.03
48644;BME280;34928;37.302;-121.984;2022-09-09T10:49:34;99569.0;;;31.13;30.22
48644;BME280;34928;37.302;-121.984;2022-09-09T10:59:50;99559.0;;;31.00;30.03
48644;BME280;34928;37.302;-121.984;2022-09-09T11:10:02;99559.0;;;30.85;29.85
48644;BME280;34928;37.302;-121.984;2022-09-09T11:20:12;99561.0;;;30.83;30.11
48644;BME280;34928;37.302;-121.984;2022-09-09T11:30:20;99542.0;;;30.55;30.20
48644;BME280;34928;37.302;-121.984;2022-09-09T11:40:28;99548.0;;;30.58;30.05
48644;BME280;34928;37.302;-121.984;2022-09-09T11:50:38;99541.0;;;30.38;29.98
48644;BME280;34928;37.302;-121.984;2022-09-09T12:00:44;99536.0;;;30.21;30.07
48644;BME280;34928;37.302;-121.984;2022-09-09T12:10:55;99534.0;;;30.55;30.06
48644;BME280;34928;37.302;-121.984;2022-09-09T12:21:11;99524.0;;;30.25;29.96
48644;BME280;34928;37.302;-121.984;2022-09-09T12:31:22;99532.0;;;30.12;29.92
48644;BME280;34928;37.302;-121.984;2022-09-09T12:41:28;99529.0;;;30.23;29.84
48644;BME280;34928;37.302;-121.984;2022-09-09T12:51:33;99521.0;;;30.03;29.92
48644;BME280;34928;37.302;-121.984;2022-09-09T13:01:37;99512.0;;;29.90;30.10
48644;BME280;34928;37.302;-121.984;2022-09-09T13:11:44;99513.0;;;29.76;30.10
48644;BME280;34928;37.302;-121.984;2022-09-09T13:21:52;99510.0;;;29.65;30.02
48644;BME280;34928;37.302;-121.984;2022-09-09T13:32:05;99504.0;;;29.63;30.23
48644;BME280;34928;37.302;-121.984;2022-09-09T13:42:24;99498.0;;;29.61;30.30
48644;BME280;34928;37.302;-121.984;2022-09-09T13:52:27;99504.0;;;29.21;30.48
48644;BME280;34928;37.302;-121.984;2022-09-09T14:02:32;99513.0;;;29.04;30.55
48644;BME280;34928;37.302;-121.984;2022-09-09T14:12:37;99516.0;;;29.17;30.87
48644;BME280;34928;37.302;-121.984;2022-09-09T14:22:42;99527.0;;;29.00;31.46
48644;BME280;34928;37.302;-121.984;2022-09-09T14:32:47;99531.0;;;28.43;33.00
48644;BME280;34928;37.302;-121.984;2022-09-09T14:42:53;99541.0;;;29.38;31.45
48644;BME280;34928;37.302;-121.984;2022-09-09T14:52:57;99555.0;;;29.48;30.43
48644;BME280;34928;37.302;-121.984;2022-09-09T15:03:02;99557.0;;;29.79;29.83
48644;BME280;34928;37.302;-121.984;2022-09-09T15:13:07;99561.0;;;29.98;29.43
48644;BME280;34928;37.302;-121.984;2022-09-09T15:23:12;99563.0;;;30.08;29.15
48644;BME280;34928;37.302;-121.984;2022-09-09T15:33:17;99561.0;;;29.73;28.92
48644;BME280;34928;37.302;-121.984;2022-09-09T15:43:22;99552.0;;;30.05;28.78
48644;BME280;34928;37.302;-121.984;2022-09-09T15:53:27;99546.0;;;30.10;28.62
48644;BME280;34928;37.302;-121.984;2022-09-09T16:03:34;99527.0;;;30.19;28.47
48644;BME280;34928;37.302;-121.984;2022-09-09T16:13:38;99526.0;;;30.25;28.33
48644;BME280;34928;37.302;-121.984;2022-09-09T16:23:42;99520.0;;;30.08;28.21
48644;BME280;34928;37.302;-121.984;2022-09-09T16:33:48;99521.0;;;30.19;28.05
48644;BME280;34928;37.302;-121.984;2022-09-09T16:43:53;99523.0;;;30.29;27.95
48644;BME280;34928;37.302;-121.984;2022-09-09T16:54:00;99509.0;;;30.38;27.84
48644;BME280;34928;37.302;-121.984;2022-09-09T17:04:09;99517.0;;;30.26;27.34
48644;BME280;34928;37.302;-121.984;2022-09-09T17:14:15;99509.0;;;30.40;27.37
48644;BME280;34928;37.302;-121.984;2022-09-09T17:24:22;99506.0;;;30.45;27.45
48644;BME280;34928;37.302;-121.984;2022-09-09T17:34:27;99502.0;;;30.34;27.50
48644;BME280;34928;37.302;-121.984;2022-09-09T17:44:32;99507.0;;;30.49;26.95
48644;BME280;34928;37.302;-121.984;2022-09-09T17:54:37;99498.0;;;30.41;26.97
48644;BME280;34928;37.302;-121.984;2022-09-09T18:04:42;99484.0;;;30.44;26.45
48644;BME280;34928;37.302;-121.984;2022-09-09T18:14:47;99464.0;;;30.49;25.84
48644;BME280;34928;37.302;-121.984;2022-09-09T18:24:52;99468.0;;;30.04;25.10
48644;BME280;34928;37.302;-121.984;2022-09-09T18:34:57;99454.0;;;30.34;25.55
48644;BME280;34928;37.302;-121.984;2022-09-09T18:45:02;99440.0;;;30.34;24.50
48644;BME280;34928;37.302;-121.984;2022-09-09T18:55:08;99431.0;;;30.26;23.69
48644;BME280;34928;37.302;-121.984;2022-09-09T19:05:12;99415.0;;;30.29;23.65
48644;BME280;34928;37.302;-121.984;2022-09-09T19:15:17;99405.0;;;30.03;23.34
48644;BME280;34928;37.302;-121.984;2022-09-09T19:25:23;99388.0;;;30.23;23.26
48644;BME280;34928;37.302;-121.984;2022-09-09T19:35:27;99370.0;;;30.40;23.14
48644;BME280;34928;37.302;-121.984;2022-09-09T19:45:32;99362.0;;;30.45;22.94
48644;BME280;34928;37.302;-121.984;2022-09-09T19:55:38;99355.0;;;30.41;22.71
48644;BME280;34928;37.302;-121.984;2022-09-09T20:05:42;99343.0;;;30.32;22.54
48644;BME280;34928;37.302;-121.984;2022-09-09T20:15:56;99336.0;;;30.49;22.52
48644;BME280;34928;37.302;-121.984;2022-09-09T20:26:04;99328.0;;;30.61;22.50
48644;BME280;34928;37.302;-121.984;2022-09-09T20:36:11;99318.0;;;30.65;22.39
48644;BME280;34928;37.302;-121.984;2022-09-09T20:46:18;99314.0;;;30.58;22.38
48644;BME280;34928;37.302;-121.984;2022-09-09T20:56:23;99305.0;;;30.76;22.45
48644;BME280;34928;37.302;-121.984;2022-09-09T21:06:27;99297.0;;;30.81;22.27
48644;BME280;34928;37.302;-121.984;2022-09-09T21:16:32;99291.0;;;30.98;22.54
48644;BME280;34928;37.302;-121.984;2022-09-09T21:26:37;99284.0;;;31.03;22.58
48644;BME280;34928;37.302;-121.984;2022-09-09T21:36:42;99276.0;;;31.25;22.53
48644;BME280;34928;37.302;-121.984;2022-09-09T21:46:47;99270.0;;;30.99;22.42
48644;BME280;34928;37.302;-121.984;2022-09-09T21:56:52;99271.0;;;31.16;22.33
48644;BME280;34928;37.302;-121.984;2022-09-09T22:06:57;99270.0;;;31.18;22.37
48644;BME280;34928;37.302;-121.984;2022-09-09T22:10:33;99273.0;;;30.98;22.37
48644;BME280;34928;37.302;-121.984;2022-09-09T22:20:41;99268.0;;;31.04;22.33
48644;BME280;34928;37.302;-121.984;2022-09-09T22:30:47;99269.0;;;31.15;22.24
48644;BME280;34928;37.302;-121.984;2022-09-09T22:37:32;99267.0;;;31.40;22.18
48644;BME280;34928;37.302;-121.984;2022-09-09T22:47:37;99261.0;;;31.25;22.15
48644;BME280;34928;37.302;-121.984;2022-09-09T22:57:42;99268.0;;;31.38;21.95
48644;BME280;34928;37.302;-121.984;2022-09-09T23:07:48;99262.0;;;31.51;21.84
48644;BME280;34928;37.302;-121.984;2022-09-09T23:17:52;99266.0;;;31.34;21.75
48644;BME280;34928;37.302;-121.984;2022-09-09T23:27:58;99266.0;;;31.04;21.69
48644;BME280;34928;37.302;-121.984;2022-09-09T23:38:02;99267.0;;;31.29;21.49
48644;BME280;34928;37.302;-121.984;2022-09-09T23:48:07;99265.0;;;31.59;21.26
48644;BME280;34928;37.302;-121.984;2022-09-09T23:58:12;99265.0;;;31.23;21.18
